Time;durP1;ratioP1;P1;durP2;ratioP2;P2;SDS_P1;SDS_P2;PMS_P1;PMS_P2;Temp;Humidity;BMP_temperature;BMP_pressure;BME280_temperature;BME280_humidity;BME280_pressure;Samples;Min_cycle;Max_cycle;Signal;HPM_P1;HPM_P2
2022/05/16 00:00:48;;;;;;;;;;;;;;;21.87;58.35;99094.59;2072477;28;19929;-47
2022/05/16 00:01:49;;;;;;;;;;;;;;;21.84;58.45;99097.72;2074401;28;19932;-49
2022/05/16 00:02:50;;;;;;;;;;;;;;;21.85;58.36;99102.09;2073564;28;19932;-49
2022/05/16 00:03:53;;;;;;;;;;;;;;;21.85;58.46;99102.09;2075669;28;20492;-49
2022/05/16 00:04:53;;;;;;;;;;;;;;;21.86;58.43;99092.94;2074798;28;19936;-48
2022/05/16 00:05:55;;;;;;;;;;;;;;;21.84;58.41;99100.41;2073145;28;20403;-51
2022/05/16 00:06:55;;;;;;;;;;;;;;;21.82;58.64;99095.25;2074812;28;19940;-49
2022/05/16 00:07:57;;;;;;;;;;;;;;;21.82;58.31;99089.84;2075995;28;19932;-47
2022/05/16 00:08:58;;;;;;;;;;;;;;;21.80;58.44;99091.91;2074242;28;19940;-49
2022/05/16 00:10:00;;;;;;;;;;;;;;;21.82;58.51;99097.94;2069774;28;19933;-48
2022/05/16 00:11:00;;;;;;;;;;;;;;;21.83;58.41;99088.78;2073152;28;19929;-48
2022/05/16 00:12:03;;;;;;;;;;;;;;;21.82;58.55;99092.53;2073918;28;19925;-51
2022/05/16 00:13:03;;;;;;;;;;;;;;;21.81;58.55;99100.84;2074523;28;19965;-48
2022/05/16 00:14:05;;;;;;;;;;;;;;;21.82;58.58;99092.53;2075132;28;19925;-50
2022/05/16 00:15:07;;;;;;;;;;;;;;;21.83;58.34;99090.66;2074865;28;20292;-48
2022/05/16 00:16:09;;;;;;;;;;;;;;;21.84;58.43;99097.72;2071815;28;19935;-49
2022/05/16 00:17:09;;;;;;;;;;;;;;;21.83;58.57;99096.06;2074500;28;19963;-48
2022/05/16 00:18:11;;;;;;;;;;;;;;;21.83;58.44;99096.88;2070129;28;19929;-48
2022/05/16 00:19:13;;;;;;;;;;;;;;;21.82;58.59;99097.94;2074670;28;20690;-47
2022/05/16 00:20:15;;;;;;;;;;;;;;;21.82;58.50;99102.50;2076489;28;19929;-47
2022/05/16 00:21:16;;;;;;;;;;;;;;;21.81;58.36;99096.28;2072846;28;21878;-50
2022/05/16 00:22:17;;;;;;;;;;;;;;;21.82;58.69;99097.13;2074345;28;20026;-49
2022/05/16 00:23:18;;;;;;;;;;;;;;;21.81;58.56;99096.28;2073596;28;19929;-51
2022/05/16 00:24:24;;;;;;;;;;;;;;;21.81;58.48;99103.53;2072800;28;20043;-47
2022/05/16 00:25:25;;;;;;;;;;;;;;;21.80;58.73;99100.00;2075227;28;20519;-49
2022/05/16 00:26:26;;;;;;;;;;;;;;;21.82;58.47;99097.13;2074623;28;19936;-49
2022/05/16 00:27:27;;;;;;;;;;;;;;;21.83;58.33;99099.59;2071274;28;19955;-50
2022/05/16 00:28:28;;;;;;;;;;;;;;;21.82;58.41;99103.34;2073577;28;19937;-49
2022/05/16 00:29:29;;;;;;;;;;;;;;;21.81;58.52;99103.53;2075584;28;20409;-50
2022/05/16 00:30:30;;;;;;;;;;;;;;;21.82;58.41;99102.50;2075166;28;19925;-47
2022/05/16 00:31:32;;;;;;;;;;;;;;;21.80;58.63;99101.88;2073990;28;19937;-47
2022/05/16 00:32:32;;;;;;;;;;;;;;;21.81;58.67;99107.09;2074468;28;19925;-49
2022/05/16 00:33:34;;;;;;;;;;;;;;;21.80;58.57;99110.00;2074048;28;19968;-48
2022/05/16 00:34:36;;;;;;;;;;;;;;;21.83;58.62;99106.88;2075847;28;19936;-49
2022/05/16 00:35:38;;;;;;;;;;;;;;;21.82;58.63;99110.63;2073704;28;19933;-49
2022/05/16 00:36:39;;;;;;;;;;;;;;;21.80;58.49;99107.28;2071781;28;19924;-51
2022/05/16 00:37:40;;;;;;;;;;;;;;;21.82;58.55;99111.44;2071704;28;20422;-51
2022/05/16 00:38:42;;;;;;;;;;;;;;;21.80;58.54;99105.41;2072416;28;19942;-50
2022/05/16 00:39:42;;;;;;;;;;;;;;;21.79;58.54;99097.53;2073950;28;19925;-51
2022/05/16 00:40:44;;;;;;;;;;;;;;;21.80;58.56;99105.41;2072834;28;20625;-49
2022/05/16 00:41:44;;;;;;;;;;;;;;;21.83;58.36;99107.69;2074456;28;19929;-50
2022/05/16 00:42:46;;;;;;;;;;;;;;;21.80;58.49;99104.59;2075266;28;19931;-50
2022/05/16 00:43:48;;;;;;;;;;;;;;;21.82;58.47;99106.03;2075525;28;19933;-51
2022/05/16 00:44:50;;;;;;;;;;;;;;;21.80;58.44;99105.41;2073618;28;19961;-49
2022/05/16 00:45:50;;;;;;;;;;;;;;;21.80;58.64;99110.81;2073961;28;19936;-49
2022/05/16 00:46:52;;;;;;;;;;;;;;;21.80;58.48;99110.00;2074235;28;19929;-48
2022/05/16 00:47:52;;;;;;;;;;;;;;;21.82;58.55;99106.03;2074738;28;19927;-49
2022/05/16 00:48:54;;;;;;;;;;;;;;;21.81;58.27;99106.25;2074633;28;21037;-50
2022/05/16 00:49:56;;;;;;;;;;;;;;;21.82;58.40;99103.34;2072364;28;19960;-51
2022/05/16 00:50:58;;;;;;;;;;;;;;;21.80;58.46;99105.41;2074891;28;19929;-48
2022/05/16 00:52:00;;;;;;;;;;;;;;;21.79;58.47;99098.38;2074816;28;20131;-48
2022/05/16 00:53:02;;;;;;;;;;;;;;;21.80;58.53;99099.19;2072431;28;19929;-48
2022/05/16 00:54:07;;;;;;;;;;;;;;;21.80;58.42;99094.63;2074079;28;23112;-47
2022/05/16 00:55:11;;;;;;;;;;;;;;;21.81;58.56;99103.53;2075019;28;20357;-48
2022/05/16 00:56:12;;;;;;;;;;;;;;;21.81;58.59;99106.25;2075545;28;21353;-48
2022/05/16 00:57:15;;;;;;;;;;;;;;;21.78;58.70;99106.66;2076267;28;20003;-49
2022/05/16 00:58:16;;;;;;;;;;;;;;;21.77;58.66;99108.53;2072683;28;19929;-48
2022/05/16 00:59:19;;;;;;;;;;;;;;;21.78;58.78;99101.25;2070169;28;19951;-50
2022/05/16 01:00:22;;;;;;;;;;;;;;;21.77;58.56;99105.03;2072674;28;19929;-49
2022/05/16 01:05:24;;;;;;;;;;;;;;;21.79;58.43;99102.94;2075573;28;20450;-48
2022/05/16 01:06:24;;;;;;;;;;;;;;;21.80;58.45;99099.19;2072419;28;20071;-48
2022/05/16 01:07:27;;;;;;;;;;;;;;;21.79;58.39;99097.53;2071637;28;19964;-48
2022/05/16 01:08:30;;;;;;;;;;;;;;;21.79;58.59;99090.28;2071368;28;19936;-49
2022/05/16 01:09:32;;;;;;;;;;;;;;;21.80;58.42;99099.19;2073417;28;19968;-47
2022/05/16 01:10:32;;;;;;;;;;;;;;;21.79;58.57;99092.97;2075879;28;19932;-48
2022/05/16 01:11:35;;;;;;;;;;;;;;;21.79;58.31;99098.38;2076241;28;20468;-49
2022/05/16 01:12:38;;;;;;;;;;;;;;;21.76;58.61;99089.88;2075719;28;19929;-48
2022/05/16 01:13:39;;;;;;;;;;;;;;;21.77;58.46;99091.53;2073880;28;19978;-48
2022/05/16 01:14:42;;;;;;;;;;;;;;;21.76;58.72;99096.09;2073257;28;19933;-51
2022/05/16 01:15:45;;;;;;;;;;;;;;;21.77;58.50;99089.66;2072894;28;19926;-48
2022/05/16 01:16:45;;;;;;;;;;;;;;;21.77;58.71;99094.22;2073028;28;19936;-49
2022/05/16 01:17:47;;;;;;;;;;;;;;;21.78;58.46;99090.47;2076466;28;20506;-50
2022/05/16 01:18:48;;;;;;;;;;;;;;;21.78;58.56;99088.59;2071683;28;19929;-49
2022/05/16 01:19:50;;;;;;;;;;;;;;;21.77;58.63;99094.22;2072334;28;19959;-49
2022/05/16 01:21:08;;;;;;;;;;;;;;;21.78;58.63;99085.06;2072052;28;19929;-49
2022/05/16 01:22:17;;;;;;;;;;;;;;;21.78;58.51;99090.47;2058199;28;19951;-49
2022/05/16 01:23:21;;;;;;;;;;;;;;;21.79;58.65;99082.16;2072790;28;19959;-48
2022/05/16 01:24:21;;;;;;;;;;;;;;;21.79;58.63;99086.75;2073578;28;19986;-51
2022/05/16 01:25:27;;;;;;;;;;;;;;;21.76;58.62;99084.47;2073129;28;19937;-51
2022/05/16 01:26:28;;;;;;;;;;;;;;;21.75;58.54;99089.03;2071129;28;19944;-50
2022/05/16 01:27:39;;;;;;;;;;;;;;;21.77;58.62;99089.66;2074563;28;19929;-47
2022/05/16 01:28:40;;;;;;;;;;;;;;;21.75;58.55;99089.03;2070993;28;20295;-48
2022/05/16 01:29:42;;;;;;;;;;;;;;;21.71;58.58;99087.81;2074903;28;19935;-48
2022/05/16 01:30:46;;;;;;;;;;;;;;;21.74;58.79;99089.25;2073092;28;19932;-50
2022/05/16 01:31:47;;;;;;;;;;;;;;;21.76;58.67;99092.56;2074571;28;19995;-49
2022/05/16 01:32:48;;;;;;;;;;;;;;;21.75;58.48;99090.91;2075530;28;19987;-48
2022/05/16 01:33:50;;;;;;;;;;;;;;;21.76;58.54;99089.88;2074202;28;19979;-51
2022/05/16 01:34:50;;;;;;;;;;;;;;;;;;2074760;28;20618;-48
2022/05/16 01:35:52;;;;;;;;;;;;;;;21.73;58.43;99087.56;2070238;28;19933;-49
2022/05/16 01:36:53;;;;;;;;;;;;;;;21.71;58.73;99081.59;2072308;28;19925;-49
2022/05/16 01:39:15;;;;;;;;;;;;;;;21.70;58.76;99082.59;2073644;28;19929;-47
2022/05/16 01:40:16;;;;;;;;;;;;;;;21.71;58.46;99085.09;2074385;28;19932;-51
2022/05/16 01:41:19;;;;;;;;;;;;;;;21.73;58.59;99076.78;2072851;28;19929;-49
2022/05/16 01:42:19;;;;;;;;;;;;;;;21.71;58.65;99084.28;2073021;28;19951;-51
2022/05/16 01:43:21;;;;;;;;;;;;;;;21.72;58.44;99088.63;2074779;28;19952;-52
2022/05/16 01:44:22;;;;;;;;;;;;;;;21.72;58.59;99085.94;2073829;28;19940;-50
2022/05/16 01:45:23;;;;;;;;;;;;;;;21.71;58.82;99089.69;2071832;28;19933;-47
2022/05/16 01:46:25;;;;;;;;;;;;;;;21.70;58.53;99088.81;2073846;28;19936;-51
2022/05/16 01:47:27;;;;;;;;;;;;;;;21.69;58.82;99094.44;2075743;28;19932;-48
2022/05/16 01:48:30;;;;;;;;;;;;;;;21.70;58.58;99088.81;2071674;28;19936;-47
2022/05/16 01:49:32;;;;;;;;;;;;;;;21.72;58.54;99091.31;2073681;28;19944;-48
2022/05/16 01:50:32;;;;;;;;;;;;;;;21.72;58.58;99085.94;2072005;28;19941;-47
2022/05/16 01:51:34;;;;;;;;;;;;;;;;;;2073562;28;19955;-49
2022/05/16 01:52:34;;;;;;;;;;;;;;;21.74;58.47;99091.94;2072048;28;19929;-50
2022/05/16 01:53:37;;;;;;;;;;;;;;;21.72;58.60;99091.31;2074583;28;19932;-51
2022/05/16 01:54:38;;;;;;;;;;;;;;;21.72;58.44;99091.31;2072526;28;19971;-51
2022/05/16 01:55:40;;;;;;;;;;;;;;;21.71;58.61;99087.81;2072813;28;19929;-51
2022/05/16 01:56:40;;;;;;;;;;;;;;;21.72;58.54;99085.94;2069901;28;20302;-47
2022/05/16 01:57:41;;;;;;;;;;;;;;;;;;2073023;28;19925;-50
2022/05/16 01:58:42;;;;;;;;;;;;;;;21.71;58.57;99089.69;2075108;28;19975;-49
2022/05/16 01:59:44;;;;;;;;;;;;;;;21.70;58.68;99091.53;2075156;28;19929;-49
2022/05/16 02:00:44;;;;;;;;;;;;;;;21.68;58.63;99082.81;2076819;28;20063;-47
2022/05/16 02:01:46;;;;;;;;;;;;;;;21.69;58.36;99081.78;2073880;28;20421;-50
2022/05/16 02:02:46;;;;;;;;;;;;;;;21.68;58.72;99080.13;2073577;28;20418;-49
2022/05/16 02:03:49;;;;;;;;;;;;;;;21.68;58.54;99079.31;2072827;28;19929;-48
2022/05/16 02:04:49;;;;;;;;;;;;;;;21.68;58.50;99079.31;2071818;28;20200;-51
2022/05/16 02:05:51;;;;;;;;;;;;;;;21.67;58.59;99083.03;2072299;28;19940;-49
2022/05/16 02:06:51;;;;;;;;;;;;;;;21.69;58.53;99081.78;2074831;28;20502;-47
2022/05/16 02:07:53;;;;;;;;;;;;;;;21.66;58.61;99071.41;2074958;28;19991;-51
2022/05/16 02:08:55;;;;;;;;;;;;;;;21.68;58.64;99073.91;2071267;28;20059;-48
2022/05/16 02:09:56;;;;;;;;;;;;;;;21.70;58.52;99069.09;2071194;28;20401;-50
2022/05/16 02:10:57;;;;;;;;;;;;;;;21.68;58.56;99073.91;2063886;28;20040;-50
2022/05/16 02:11:59;;;;;;;;;;;;;;;21.67;58.51;99075.75;2071027;28;19940;-48
2022/05/16 02:12:59;;;;;;;;;;;;;;;21.69;58.53;99075.56;2074694;28;19929;-48
2022/05/16 02:14:01;;;;;;;;;;;;;;;21.68;58.76;99073.91;2075259;28;19929;-48
2022/05/16 02:15:02;;;;;;;;;;;;;;;21.65;58.70;99077.84;2074817;28;19929;-48
2022/05/16 02:16:03;;;;;;;;;;;;;;;21.67;58.65;99069.53;2074985;28;19929;-49
2022/05/16 02:17:04;;;;;;;;;;;;;;;21.67;58.49;99069.53;2073263;28;19929;-49
2022/05/16 02:18:07;;;;;;;;;;;;;;;21.68;58.40;99073.91;2076763;28;20934;-50
2022/05/16 02:19:07;;;;;;;;;;;;;;;21.67;58.79;99072.22;2073565;28;19944;-48
2022/05/16 02:20:09;;;;;;;;;;;;;;;21.67;58.75;99069.53;2073215;28;19929;-50
2022/05/16 02:25:09;;;;;;;;;;;;;;;21.67;58.46;99074.94;2075903;28;19933;-51
2022/05/16 02:26:10;;;;;;;;;;;;;;;21.67;58.68;99072.22;2076437;28;19983;-50
2022/05/16 02:27:13;;;;;;;;;;;;;;;21.67;58.49;99073.06;2074255;28;19925;-48
2022/05/16 02:28:14;;;;;;;;;;;;;;;21.69;58.53;99072.84;2074343;28;19936;-47
2022/05/16 02:29:16;;;;;;;;;;;;;;;21.68;58.39;99076.59;2075918;28;19944;-49
2022/05/16 02:30:18;;;;;;;;;;;;;;;21.66;58.48;99078.69;2072754;28;19937;-49
2022/05/16 02:31:19;;;;;;;;;;;;;;;21.67;58.33;99073.06;2074006;28;20019;-52
2022/05/16 02:32:20;;;;;;;;;;;;;;;21.68;58.44;99079.31;2072587;28;20023;-49
2022/05/16 02:33:22;;;;;;;;;;;;;;;21.65;58.56;99072.47;2075360;28;19940;-47
2022/05/16 02:34:23;;;;;;;;;;;;;;;21.65;58.64;99072.47;2075860;28;19929;-48
2022/05/16 02:35:24;;;;;;;;;;;;;;;21.64;58.66;99077.00;2073077;28;19956;-47
2022/05/16 02:36:25;;;;;;;;;;;;;;;21.66;58.45;99076.81;2073761;28;19933;-47
2022/05/16 02:37:26;;;;;;;;;;;;;;;21.66;58.69;99070.59;2071733;28;19963;-49
2022/05/16 02:38:27;;;;;;;;;;;;;;;21.66;58.69;99070.59;2072454;28;19944;-47
2022/05/16 02:39:28;;;;;;;;;;;;;;;21.66;58.55;99070.59;2069829;28;20031;-46
2022/05/16 02:40:31;;;;;;;;;;;;;;;21.68;58.42;99068.50;2070509;28;19936;-49
2022/05/16 02:41:33;;;;;;;;;;;;;;;21.67;58.38;99070.34;2069743;28;19982;-47
2022/05/16 02:42:33;;;;;;;;;;;;;;;21.67;58.53;99066.84;2074729;28;19936;-47
2022/05/16 02:43:35;;;;;;;;;;;;;;;21.66;58.54;99067.88;2073523;28;20012;-48
2022/05/16 02:44:38;;;;;;;;;;;;;;;21.64;58.42;99070.78;2070887;28;19925;-48
2022/05/16 02:45:40;;;;;;;;;;;;;;;21.64;58.56;99066.22;2075572;28;19925;-48
2022/05/16 02:46:41;;;;;;;;;;;;;;;21.64;58.63;99066.22;2072353;28;19929;-47
2022/05/16 02:47:42;;;;;;;;;;;;;;;21.62;58.41;99071.00;2074657;28;20012;-47
2022/05/16 02:48:43;;;;;;;;;;;;;;;21.62;58.64;99067.50;2073477;28;19933;-47
2022/05/16 02:49:45;;;;;;;;;;;;;;;21.61;58.72;99066.63;2073722;28;19932;-47
2022/05/16 02:50:45;;;;;;;;;;;;;;;21.63;58.63;99063.75;2073720;28;20379;-47
2022/05/16 02:51:47;;;;;;;;;;;;;;;21.63;58.64;99069.97;2071291;28;19929;-47
2022/05/16 02:52:47;;;;;;;;;;;;;;;21.63;58.27;99072.66;2073091;28;20382;-47
2022/05/16 02:53:49;;;;;;;;;;;;;;;21.65;58.54;99075.16;2073361;28;19929;-45
2022/05/16 02:54:51;;;;;;;;;;;;;;;21.66;58.44;99063.31;2075145;28;19929;-47
2022/05/16 02:55:54;;;;;;;;;;;;;;;21.65;58.47;99064.34;2075731;28;19933;-47
2022/05/16 02:56:55;;;;;;;;;;;;;;;21.64;58.34;99065.38;2076510;28;19952;-49
2022/05/16 02:57:56;;;;;;;;;;;;;;;21.65;58.53;99064.34;2075295;28;19979;-46
2022/05/16 02:58:58;;;;;;;;;;;;;;;21.67;58.40;99069.53;2072330;28;20401;-47
2022/05/16 02:59:59;;;;;;;;;;;;;;;21.66;58.39;99060.59;2075836;28;20019;-47
2022/05/16 03:01:00;;;;;;;;;;;;;;;21.64;58.30;99065.38;2075973;28;20002;-46
2022/05/16 03:02:02;;;;;;;;;;;;;;;21.63;58.35;99067.25;2078069;28;19933;-47
2022/05/16 03:03:02;;;;;;;;;;;;;;;21.63;58.62;99067.25;2077431;28;19941;-48
2022/05/16 03:04:04;;;;;;;;;;;;;;;21.63;58.48;99061.03;2074447;28;19937;-47
2022/05/16 03:05:06;;;;;;;;;;;;;;;21.63;58.38;99071.84;2074173;28;19995;-48
2022/05/16 03:06:08;;;;;;;;;;;;;;;21.64;58.60;99076.19;2073692;28;19995;-49
2022/05/16 03:07:08;;;;;;;;;;;;;;;21.65;58.57;99064.34;2074255;28;19929;-47
2022/05/16 03:08:10;;;;;;;;;;;;;;;21.64;58.34;99063.50;2075480;28;20610;-47
2022/05/16 03:09:10;;;;;;;;;;;;;;;21.64;58.40;99066.22;2074530;28;20462;-47
2022/05/16 03:10:15;;;;;;;;;;;;;;;21.63;58.70;99061.88;2075551;28;19933;-46
2022/05/16 03:11:17;;;;;;;;;;;;;;;21.62;58.28;99062.91;2076230;28;19995;-46
2022/05/16 03:12:18;;;;;;;;;;;;;;;21.60;58.75;99059.59;2075680;28;20391;-47
2022/05/16 03:13:19;;;;;;;;;;;;;;;21.61;58.63;99058.53;2073235;28;19925;-47
2022/05/16 03:14:21;;;;;;;;;;;;;;;21.62;58.61;99062.91;2076644;28;19933;-47
2022/05/16 03:15:22;;;;;;;;;;;;;;;21.61;58.52;99066.63;2074316;28;19929;-48
2022/05/16 03:16:23;;;;;;;;;;;;;;;21.63;58.46;99072.66;2076068;28;19937;-50
2022/05/16 03:17:24;;;;;;;;;;;;;;;21.60;58.61;99066.88;2074525;28;19933;-46
2022/05/16 03:18:27;;;;;;;;;;;;;;;21.61;58.27;99063.94;2072566;28;19964;-49
2022/05/16 03:19:28;;;;;;;;;;;;;;;21.60;58.61;99070.38;2075088;28;19979;-47
2022/05/16 03:20:29;;;;;;;;;;;;;;;21.60;58.56;99066.88;2074407;28;20004;-45
2022/05/16 03:21:30;;;;;;;;;;;;;;;21.60;58.52;99067.69;2074008;28;20091;-46
2022/05/16 03:22:31;;;;;;;;;;;;;;;21.60;58.48;99064.16;2074125;28;20024;-49
2022/05/16 03:23:32;;;;;;;;;;;;;;;21.60;58.41;99061.47;2077446;28;19959;-49
2022/05/16 03:24:35;;;;;;;;;;;;;;;21.60;58.54;99065.00;2075108;28;20474;-46
2022/05/16 03:25:36;;;;;;;;;;;;;;;21.63;58.43;99066.44;2074297;28;20044;-48
2022/05/16 03:26:39;;;;;;;;;;;;;;;21.61;58.51;99065.81;2073705;28;20518;-48
2022/05/16 03:27:39;;;;;;;;;;;;;;;21.61;58.65;99069.34;2070708;28;19933;-48
2022/05/16 03:28:41;;;;;;;;;;;;;;;21.62;58.31;99070.19;2075286;28;19971;-48
2022/05/16 03:29:41;;;;;;;;;;;;;;;21.61;58.60;99069.34;2076544;28;19925;-47
2022/05/16 03:30:43;;;;;;;;;;;;;;;21.61;58.37;99066.63;2074959;28;19933;-46
2022/05/16 03:31:44;;;;;;;;;;;;;;;21.61;58.56;99074.72;2077438;28;19940;-48
2022/05/16 03:32:45;;;;;;;;;;;;;;;21.60;58.30;99067.69;2076918;28;19925;-47
2022/05/16 03:33:46;;;;;;;;;;;;;;;21.59;58.69;99063.34;2074794;28;19952;-50
2022/05/16 03:34:49;;;;;;;;;;;;;;;21.57;58.45;99073.50;2075161;28;20268;-46
2022/05/16 03:35:55;;;;;;;;;;;;;;;21.58;58.57;99074.34;2074537;28;21005;-49
2022/05/16 03:36:56;;;;;;;;;;;;;;;21.60;58.74;99075.78;2075393;28;20479;-46
2022/05/16 03:37:57;;;;;;;;;;;;;;;21.62;58.52;99076.41;2074145;28;19936;-46
2022/05/16 03:41:37;;;;;;;;;;;;;;;21.59;58.42;99087.63;2074709;28;19929;-47
2022/05/16 03:42:39;;;;;;;;;;;;;;;21.58;58.67;99088.66;2072327;28;19941;-49
2022/05/16 03:43:41;;;;;;;;;;;;;;;21.58;58.50;99088.66;2076796;28;19979;-47
2022/05/16 03:44:42;;;;;;;;;;;;;;;21.59;58.62;99087.63;2076090;28;19983;-50
2022/05/16 03:45:44;;;;;;;;;;;;;;;21.59;58.74;99090.34;2074615;28;20770;-51
2022/05/16 03:46:44;;;;;;;;;;;;;;;21.60;58.56;99093.84;2075713;28;20329;-50
2022/05/16 03:47:46;;;;;;;;;;;;;;;21.58;58.48;99088.66;2075380;28;19968;-51
2022/05/16 03:48:46;;;;;;;;;;;;;;;21.60;58.68;99088.47;2072298;28;19929;-51
2022/05/16 03:49:48;;;;;;;;;;;;;;;21.59;58.74;99090.34;2075727;28;19939;-51
2022/05/16 03:50:48;;;;;;;;;;;;;;;21.59;58.58;99087.63;2075405;28;20056;-50
2022/05/16 03:51:50;;;;;;;;;;;;;;;21.58;58.51;99088.66;2076556;28;19925;-53
2022/05/16 03:52:50;;;;;;;;;;;;;;;21.59;58.61;99093.03;2072029;28;19933;-47
2022/05/16 03:53:52;;;;;;;;;;;;;;;21.58;58.42;99091.34;2077251;28;20008;-56
2022/05/16 03:54:52;;;;;;;;;;;;;;;21.59;58.26;99092.19;2075494;28;19933;-49
2022/05/16 03:55:54;;;;;;;;;;;;;;;21.58;58.71;99085.97;2076351;28;20480;-51
2022/05/16 03:56:55;;;;;;;;;;;;;;;21.59;58.45;99094.88;2075556;28;20628;-51
2022/05/16 03:57:58;;;;;;;;;;;;;;;21.58;58.54;99095.94;2074178;28;20016;-50
2022/05/16 03:58:59;;;;;;;;;;;;;;;21.59;58.47;99097.56;2074475;28;20041;-48
2022/05/16 04:00:00;;;;;;;;;;;;;;;21.58;58.76;99099.47;2076953;28;19968;-50
2022/05/16 04:01:01;;;;;;;;;;;;;;;21.60;58.54;99101.97;2074212;28;20331;-50
2022/05/16 04:02:02;;;;;;;;;;;;;;;21.59;58.50;99095.72;2075422;28;19936;-52
2022/05/16 04:03:03;;;;;;;;;;;;;;;21.59;58.47;99101.13;2075964;28;20027;-48
2022/05/16 04:04:05;;;;;;;;;;;;;;;21.59;58.52;99093.03;2071480;28;19937;-52
2022/05/16 04:05:06;;;;;;;;;;;;;;;21.60;58.37;99096.56;2075436;28;19925;-48
2022/05/16 04:06:08;;;;;;;;;;;;;;;21.58;58.52;99095.94;2075888;28;20576;-51
2022/05/16 04:07:09;;;;;;;;;;;;;;;21.56;58.65;99103.41;2077663;28;19933;-51
2022/05/16 04:08:10;;;;;;;;;;;;;;;21.55;58.62;99099.88;2072676;28;19987;-52
2022/05/16 04:09:11;;;;;;;;;;;;;;;21.56;58.65;99098.84;2072704;28;20031;-52
2022/05/16 04:10:12;;;;;;;;;;;;;;;21.56;58.62;99100.72;2075554;28;19941;-51
2022/05/16 04:11:15;;;;;;;;;;;;;;;21.53;58.63;99103.84;2074847;28;19929;-51
2022/05/16 04:12:16;;;;;;;;;;;;;;;21.53;58.61;99110.06;2077809;28;20003;-50
2022/05/16 04:13:18;;;;;;;;;;;;;;;21.54;58.85;99103.63;2076681;28;19964;-49
2022/05/16 04:14:20;;;;;;;;;;;;;;;21.54;58.65;99102.81;2076425;28;20036;-51
2022/05/16 04:15:21;;;;;;;;;;;;;;;21.54;58.56;99106.34;2073882;28;19998;-50
2022/05/16 04:16:23;;;;;;;;;;;;;;;21.54;58.83;99100.94;2074959;28;19937;-47
2022/05/16 04:17:23;;;;;;;;;;;;;;;21.55;58.75;99109.84;2076228;28;20413;-48
2022/05/16 04:18:25;;;;;;;;;;;;;;;21.54;58.68;99111.72;2070771;28;19929;-52
2022/05/16 04:19:25;;;;;;;;;;;;;;;21.54;58.52;99111.72;2074987;28;19929;-51
2022/05/16 04:20:27;;;;;;;;;;;;;;;21.53;58.72;99107.34;2073647;28;19925;-51
2022/05/16 04:21:28;;;;;;;;;;;;;;;21.53;58.58;99115.44;2075266;28;19929;-53
2022/05/16 04:22:30;;;;;;;;;;;;;;;21.53;58.68;99109.22;2069545;28;19976;-53
2022/05/16 04:23:31;;;;;;;;;;;;;;;21.53;58.74;99109.22;2071049;28;19936;-50
2022/05/16 04:24:33;;;;;;;;;;;;;;;21.52;58.79;99110.28;2073228;28;19925;-47
2022/05/16 04:25:33;;;;;;;;;;;;;;;21.52;58.62;99112.97;2074581;28;20460;-52
2022/05/16 04:26:35;;;;;;;;;;;;;;;21.50;58.59;99113.19;2075217;28;19990;-51
2022/05/16 04:27:36;;;;;;;;;;;;;;;21.51;58.59;99117.56;2073316;28;19925;-53
2022/05/16 04:28:39;;;;;;;;;;;;;;;21.51;58.54;99116.72;2074361;28;19925;-49
2022/05/16 04:29:39;;;;;;;;;;;;;;;21.52;58.81;99119.19;2072853;28;19932;-52
2022/05/16 04:30:41;;;;;;;;;;;;;;;21.49;58.82;99130.41;2075030;28;20007;-52
2022/05/16 04:31:41;;;;;;;;;;;;;;;21.49;58.45;99126.91;2070490;28;20051;-54
2022/05/16 04:32:43;;;;;;;;;;;;;;;21.48;58.71;99123.38;2073302;28;19929;-50
2022/05/16 04:33:43;;;;;;;;;;;;;;;21.48;58.94;99128.78;2076896;28;20945;-54
2022/05/16 04:34:45;;;;;;;;;;;;;;;21.48;58.72;99128.78;2076440;28;19929;-51
2022/05/16 04:35:45;;;;;;;;;;;;;;;21.48;58.66;99128.78;2075430;28;19925;-51
2022/05/16 04:36:47;;;;;;;;;;;;;;;21.49;58.88;99124.19;2075674;28;20496;-53
2022/05/16 04:37:47;;;;;;;;;;;;;;;21.49;58.89;99124.19;2076170;28;20020;-50
2022/05/16 04:38:49;;;;;;;;;;;;;;;21.49;58.69;99125.03;2074180;28;19934;-53
2022/05/16 04:39:49;;;;;;;;;;;;;;;21.49;58.51;99125.03;2075994;28;19968;-54
2022/05/16 04:43:29;;;;;;;;;;;;;;;21.50;58.84;99132.06;2075658;28;20379;-51
2022/05/16 04:44:36;;;;;;;;;;;;;;;21.48;58.63;99126.06;2075696;28;19998;-50
2022/05/16 04:45:37;;;;;;;;;;;;;;;21.47;58.80;99120.88;2076720;28;20356;-51
2022/05/16 04:46:38;;;;;;;;;;;;;;;21.48;58.73;99117.97;2076901;28;19951;-50
2022/05/16 04:47:40;;;;;;;;;;;;;;;21.50;58.52;99123.16;2073832;28;20031;-51
2022/05/16 04:48:40;;;;;;;;;;;;;;;21.50;58.44;99115.06;2072549;28;19929;-47
2022/05/16 04:49:42;;;;;;;;;;;;;;;21.49;58.80;99125.03;2075030;28;19925;-52
2022/05/16 04:50:43;;;;;;;;;;;;;;;21.49;58.70;99118.81;2076643;28;20377;-52
2022/05/16 04:51:44;;;;;;;;;;;;;;;21.49;58.62;99125.03;2074975;28;19926;-54
2022/05/16 04:52:45;;;;;;;;;;;;;;;21.47;58.61;99121.69;2074231;28;19940;-53
2022/05/16 04:53:46;;;;;;;;;;;;;;;21.45;58.89;99123.75;2073449;28;19968;-48
2022/05/16 04:54:48;;;;;;;;;;;;;;;21.45;58.66;99122.94;2072091;28;21945;-54
2022/05/16 04:55:49;;;;;;;;;;;;;;;21.44;58.71;99116.72;2075199;28;20024;-46
2022/05/16 04:56:51;;;;;;;;;;;;;;;21.45;58.68;99122.94;2073526;28;20448;-50
2022/05/16 04:57:52;;;;;;;;;;;;;;;21.46;58.57;99119.22;2074810;28;19939;-50
2022/05/16 04:58:53;;;;;;;;;;;;;;;21.44;58.89;99115.91;2075923;28;19925;-49
2022/05/16 04:59:56;;;;;;;;;;;;;;;21.42;58.61;99116.94;2075226;28;19940;-50
2022/05/16 05:00:56;;;;;;;;;;;;;;;21.41;58.78;99115.28;2074166;28;19925;-50
2022/05/16 05:01:58;;;;;;;;;;;;;;;21.44;58.76;99116.72;2076404;28;19928;-49
2022/05/16 05:02:59;;;;;;;;;;;;;;;21.43;58.75;99117.78;2069439;28;20399;-51
2022/05/16 05:04:00;;;;;;;;;;;;;;;21.41;58.75;99112.56;2072763;28;19929;-46
2022/05/16 05:05:03;;;;;;;;;;;;;;;21.45;58.86;99122.94;2076609;28;19940;-51
2022/05/16 05:06:05;;;;;;;;;;;;;;;21.42;58.94;99125.03;2076156;28;19929;-47
2022/05/16 05:07:05;;;;;;;;;;;;;;;21.41;58.97;99117.16;2073943;28;19929;-49
2022/05/16 05:08:07;;;;;;;;;;;;;;;21.42;58.94;99121.50;2074879;28;19925;-52
2022/05/16 05:09:08;;;;;;;;;;;;;;;21.41;58.91;99112.56;2076131;28;19933;-51
2022/05/16 05:14:35;;;;;;;;;;;;;;;21.42;58.96;99125.03;2039027;28;19931;-51
2022/05/16 05:15:38;;;;;;;;;;;;;;;21.41;58.62;99117.97;2060498;28;19931;-51
2022/05/16 05:16:40;;;;;;;;;;;;;;;21.44;58.88;99122.13;2074601;28;19937;-54
2022/05/16 05:17:40;;;;;;;;;;;;;;;21.42;58.78;99127.75;2071185;28;19929;-49
2022/05/16 05:18:42;;;;;;;;;;;;;;;21.41;58.77;99123.38;2074376;28;19933;-50
2022/05/16 05:19:43;;;;;;;;;;;;;;;21.39;58.85;99122.75;2074903;28;20444;-50
2022/05/16 05:20:45;;;;;;;;;;;;;;;21.38;59.03;99122.97;2075226;28;19983;-50
2022/05/16 05:21:47;;;;;;;;;;;;;;;21.37;58.96;99127.53;2076270;28;19968;-53
2022/05/16 05:22:48;;;;;;;;;;;;;;;21.36;58.97;99125.81;2074777;28;19928;-49
2022/05/16 05:23:52;;;;;;;;;;;;;;;21.36;58.88;99128.53;2076235;28;20023;-53
2022/05/16 05:24:52;;;;;;;;;;;;;;;21.37;58.70;99121.31;2075580;28;19933;-52
2022/05/16 05:25:54;;;;;;;;;;;;;;;21.38;58.82;99122.97;2075723;28;19929;-53
2022/05/16 05:26:54;;;;;;;;;;;;;;;21.38;58.96;99129.19;2074663;28;19932;-51
2022/05/16 05:27:56;;;;;;;;;;;;;;;21.39;58.83;99130.84;2076401;28;19963;-52
2022/05/16 05:28:58;;;;;;;;;;;;;;;21.37;58.70;99119.44;2074877;28;20044;-49
2022/05/16 05:29:58;;;;;;;;;;;;;;;21.37;58.84;99122.13;2072004;28;19932;-51
2022/05/16 05:31:02;;;;;;;;;;;;;;;21.40;58.77;99127.13;2074015;28;19936;-49
2022/05/16 05:32:03;;;;;;;;;;;;;;;21.39;58.69;99130.00;2073172;28;20744;-48
2022/05/16 05:33:04;;;;;;;;;;;;;;;21.38;58.91;99125.66;2073760;28;20403;-52
2022/05/16 05:34:05;;;;;;;;;;;;;;;21.37;59.00;99126.72;2073098;28;19925;-47
2022/05/16 05:35:06;;;;;;;;;;;;;;;21.37;58.68;99121.31;2068860;28;19937;-51
2022/05/16 05:36:09;;;;;;;;;;;;;;;21.36;58.91;99125.81;2070656;28;19933;-54
2022/05/16 05:37:10;;;;;;;;;;;;;;;21.36;58.89;99127.69;2073182;28;19933;-46
2022/05/16 05:38:11;;;;;;;;;;;;;;;21.37;58.81;99126.72;2075172;28;20450;-50
2022/05/16 05:39:16;;;;;;;;;;;;;;;21.35;58.85;99123.34;2073506;28;19936;-50
2022/05/16 05:40:16;;;;;;;;;;;;;;;21.35;58.87;99126.06;2075112;28;20015;-49